createdAt,value
2019-05-18T00:00:25.199Z,11.2
2019-05-18T00:01:01.112Z,11.3
2019-05-18T00:01:37.078Z,11.3
2019-05-18T00:02:13.030Z,11.2
2019-05-18T00:02:49.115Z,11.2
2019-05-18T00:03:25.088Z,11.2
2019-05-18T00:04:01.068Z,11.1
2019-05-18T00:04:37.095Z,11.1
2019-05-18T00:05:13.165Z,11.1
2019-05-18T00:05:49.198Z,11.1
2019-05-18T00:06:25.061Z,11.2
2019-05-18T00:07:01.037Z,11.2
2019-05-18T00:07:37.115Z,11.2
2019-05-18T00:08:13.080Z,11
2019-05-18T00:08:49.051Z,11.2
2019-05-18T00:09:25.022Z,11
2019-05-18T00:10:01.107Z,11.1
2019-05-18T00:10:37.135Z,11.1
2019-05-18T00:11:13.167Z,11.1
2019-05-18T00:11:49.015Z,11
2019-05-18T00:12:25.187Z,11.1
2019-05-18T00:13:01.074Z,11.1
2019-05-18T00:13:37.045Z,11.1
2019-05-18T00:14:13.041Z,11.1
2019-05-18T00:14:49.179Z,11
2019-05-18T00:15:25.183Z,11.1
2019-05-18T00:16:01.053Z,11
2019-05-18T00:16:37.122Z,11.2
2019-05-18T00:17:25.470Z,11
2019-05-18T00:17:49.089Z,10.9
2019-05-18T00:18:25.038Z,11.1
2019-05-18T00:19:01.007Z,11
2019-05-18T00:19:37.107Z,10.9
2019-05-18T00:20:13.072Z,11
2019-05-18T00:20:49.036Z,11
2019-05-18T00:21:25.130Z,11.1
2019-05-18T00:22:01.216Z,10.9
2019-05-18T00:22:37.061Z,11
2019-05-18T00:23:13.040Z,10.9
2019-05-18T00:23:49.116Z,10.9
2019-05-18T00:24:25.163Z,10.9
2019-05-18T00:25:01.147Z,11
2019-05-18T00:25:37.030Z,10.9
2019-05-18T00:26:13.116Z,10.9
2019-05-18T00:26:49.089Z,10.9
2019-05-18T00:27:25.193Z,10.9
2019-05-18T00:28:01.043Z,10.9
2019-05-18T00:28:37.115Z,10.9
2019-05-18T00:29:13.095Z,10.9
2019-05-18T00:29:49.061Z,10.9
2019-05-18T00:30:25.132Z,10.9
2019-05-18T00:31:01.132Z,10.8
2019-05-18T00:31:37.149Z,10.9
2019-05-18T00:32:13.109Z,10.8
2019-05-18T00:32:49.073Z,10.8
2019-05-18T00:33:25.159Z,10.9
2019-05-18T00:34:01.093Z,10.8
2019-05-18T00:34:37.055Z,10.9
2019-05-18T00:35:13.019Z,10.8
2019-05-18T00:35:49.107Z,10.9
2019-05-18T00:36:25.087Z,10.8
2019-05-18T00:37:01.050Z,10.8
2019-05-18T00:37:37.032Z,10.8
2019-05-18T00:38:13.155Z,10.9
2019-05-18T00:38:49.102Z,10.8
2019-05-18T00:39:25.091Z,10.8
2019-05-18T00:40:01.012Z,10.8
2019-05-18T00:40:37.105Z,10.8
2019-05-18T00:41:13.083Z,10.8
2019-05-18T00:41:49.047Z,10.8
2019-05-18T00:42:25.006Z,10.8
2019-05-18T00:43:01.168Z,10.7
2019-05-18T00:43:37.074Z,10.7
2019-05-18T00:44:13.038Z,10.9
2019-05-18T00:44:49.009Z,10.8
2019-05-18T00:45:25.138Z,10.8
2019-05-18T00:46:01.067Z,10.9
2019-05-18T00:46:37.036Z,10.7
2019-05-18T00:47:13.003Z,10.7
2019-05-18T00:47:49.097Z,10.7
2019-05-18T00:48:25.111Z,10.7
2019-05-18T00:49:01.029Z,10.6
2019-05-18T00:49:37.003Z,10.7
2019-05-18T00:50:13.099Z,10.8
2019-05-18T00:50:49.065Z,10.8
2019-05-18T00:51:25.143Z,10.7
2019-05-18T00:52:01.003Z,10.7
2019-05-18T00:52:37.095Z,10.7
2019-05-18T00:53:13.066Z,10.8
2019-05-18T00:53:49.131Z,10.7
2019-05-18T00:54:24.992Z,10.8
2019-05-18T00:55:01.087Z,10.7
2019-05-18T00:55:37.053Z,10.8
2019-05-18T00:56:13.019Z,10.7
2019-05-18T00:56:49.022Z,10.7
2019-05-18T00:57:25.085Z,10.7
2019-05-18T00:58:01.052Z,10.7
2019-05-18T00:58:37.024Z,10.8
2019-05-18T00:59:16.444Z,10.7
2019-05-18T00:59:49.091Z,10.8
2019-05-18T01:00:25.067Z,10.8
2019-05-18T01:01:01.018Z,10.8
2019-05-18T01:01:37.128Z,10.7
2019-05-18T01:02:13.082Z,10.7
2019-05-18T01:02:49.047Z,10.7
2019-05-18T01:03:25.023Z,10.7
2019-05-18T01:04:01.123Z,10.7
2019-05-18T01:04:37.120Z,10.8
2019-05-18T01:05:13.051Z,10.7
2019-05-18T01:05:49.015Z,10.7
2019-05-18T01:06:25.149Z,10.7
2019-05-18T01:07:01.073Z,10.7
2019-05-18T01:07:37.060Z,10.7
2019-05-18T01:08:13.032Z,10.6
2019-05-18T01:08:49.093Z,10.6
2019-05-18T01:09:25.215Z,10.7
2019-05-18T01:10:01.042Z,10.7
2019-05-18T01:10:37.021Z,10.7
2019-05-18T01:11:13.099Z,10.6
2019-05-18T01:11:49.065Z,10.6
2019-05-18T01:12:25.036Z,10.6
2019-05-18T01:13:01.012Z,10.7
2019-05-18T01:13:37.111Z,10.5
2019-05-18T01:14:13.064Z,10.6
2019-05-18T01:14:49.142Z,10.5
2019-05-18T01:15:25.002Z,10.6
2019-05-18T01:16:01.092Z,10.6
2019-05-18T01:16:37.061Z,10.5
2019-05-18T01:17:13.030Z,10.5
2019-05-18T01:17:58.195Z,10.5
2019-05-18T01:18:25.105Z,10.5
2019-05-18T01:19:01.054Z,10.5
2019-05-18T01:19:37.026Z,10.5
2019-05-18T01:20:13.026Z,10.5
2019-05-18T01:20:49.078Z,10.5
2019-05-18T01:21:25.054Z,10.4
2019-05-18T01:22:01.035Z,10.4
2019-05-18T01:22:36.999Z,10.4
2019-05-18T01:23:13.076Z,10.5
2019-05-18T01:23:49.051Z,10.5
2019-05-18T01:24:25.018Z,10.4
2019-05-18T01:25:00.996Z,10.4
2019-05-18T01:25:37.094Z,10.5
2019-05-18T01:26:13.048Z,10.3
2019-05-18T01:26:49.011Z,10.3
2019-05-18T01:27:24.987Z,10.4
2019-05-18T01:28:01.078Z,10.5
2019-05-18T01:28:37.074Z,10.4
2019-05-18T01:29:13.013Z,10.5
2019-05-18T01:29:48.982Z,10.4
2019-05-18T01:30:25.079Z,10.3
2019-05-18T01:31:01.055Z,10.4
2019-05-18T01:31:37.012Z,10.4
2019-05-18T01:32:12.995Z,10.4
2019-05-18T01:32:49.075Z,10.3
2019-05-18T01:33:25.055Z,10.4
2019-05-18T01:34:01.025Z,10.3
2019-05-18T01:34:36.975Z,10.5
2019-05-18T01:35:13.105Z,10.3
2019-05-18T01:35:49.048Z,10.4
2019-05-18T01:36:25.026Z,10.3
2019-05-18T01:37:01.090Z,10.3
2019-05-18T01:37:37.073Z,10.3
2019-05-18T01:38:13.043Z,10.3
2019-05-18T01:38:49.002Z,10.3
2019-05-18T01:39:25.096Z,10.3
2019-05-18T01:40:01.062Z,10.2
2019-05-18T01:40:37.034Z,10.3
2019-05-18T01:41:13.007Z,10.2
2019-05-18T01:41:49.109Z,10.3
2019-05-18T01:42:25.075Z,10.3
2019-05-18T01:43:01.040Z,10.3
2019-05-18T01:43:37.004Z,10.3
2019-05-18T01:44:13.104Z,10.3
2019-05-18T01:44:49.061Z,10.3
2019-05-18T01:45:25.025Z,10.2
2019-05-18T01:46:00.994Z,10.3
2019-05-18T01:46:37.097Z,10.3
2019-05-18T01:47:13.069Z,10.2
2019-05-18T01:47:49.025Z,10.2
2019-05-18T01:48:25.006Z,10.3
2019-05-18T01:49:01.073Z,10.3
2019-05-18T01:49:37.048Z,10.2
2019-05-18T01:50:13.026Z,10.3
2019-05-18T01:50:48.992Z,10.3
2019-05-18T01:51:25.086Z,10.2
2019-05-18T01:52:01.071Z,10.2
2019-05-18T01:52:37.034Z,10.2
2019-05-18T01:53:12.993Z,10.2
2019-05-18T01:53:49.081Z,10.2
2019-05-18T01:54:25.048Z,10.2
2019-05-18T01:55:01.020Z,10.2
2019-05-18T01:55:36.991Z,10.2
2019-05-18T01:56:13.081Z,10.2
2019-05-18T01:56:49.048Z,10.1
2019-05-18T01:57:25.046Z,10.1
2019-05-18T01:58:01.014Z,10.1
2019-05-18T01:58:37.099Z,10.3
2019-05-18T01:59:13.049Z,10.1
2019-05-18T01:59:49.023Z,10.2
2019-05-18T02:00:24.988Z,10.3
2019-05-18T02:01:01.077Z,10.2
2019-05-18T02:01:37.051Z,10.2
2019-05-18T02:02:13.035Z,10.3
2019-05-18T02:02:48.981Z,10.2
2019-05-18T02:03:26.353Z,10.2
2019-05-18T02:04:01.044Z,10.1
2019-05-18T02:04:37.016Z,10.2
2019-05-18T02:05:12.996Z,10.1
2019-05-18T02:05:49.097Z,10.3
2019-05-18T02:06:25.042Z,10.1
2019-05-18T02:07:01.016Z,10.1
2019-05-18T02:07:36.983Z,10.2
2019-05-18T02:08:13.101Z,10.2
2019-05-18T02:08:49.279Z,10.2
2019-05-18T02:09:25.009Z,10.1
2019-05-18T02:10:00.985Z,10.2
2019-05-18T02:10:37.102Z,10.2
2019-05-18T02:11:13.040Z,10.1
2019-05-18T02:11:49.009Z,10.1
2019-05-18T02:12:25.002Z,10.1
2019-05-18T02:13:01.063Z,10.2
2019-05-18T02:13:37.034Z,10.1
2019-05-18T02:14:13.019Z,10.1
2019-05-18T02:14:49.087Z,10.2
2019-05-18T02:15:25.066Z,10.1
2019-05-18T02:16:01.038Z,10.2
2019-05-18T02:16:37.006Z,10
2019-05-18T02:17:13.091Z,10.1
2019-05-18T02:17:49.067Z,10
2019-05-18T02:18:29.543Z,10.1
2019-05-18T02:19:00.998Z,10.1
2019-05-18T02:19:37.098Z,10.1
2019-05-18T02:20:13.056Z,10.1
2019-05-18T02:20:49.052Z,10.1
2019-05-18T02:21:24.988Z,10.2
2019-05-18T02:22:01.081Z,10.1
2019-05-18T02:22:37.053Z,10.1
2019-05-18T02:23:13.028Z,10
2019-05-18T02:23:48.989Z,10.1
2019-05-18T02:24:25.070Z,10.1
2019-05-18T02:25:01.060Z,10
2019-05-18T02:25:37.022Z,10.1
2019-05-18T02:26:12.989Z,10.2
2019-05-18T02:26:49.070Z,10
2019-05-18T02:27:25.044Z,10.1
2019-05-18T02:28:01.020Z,10
2019-05-18T02:28:36.982Z,10
2019-05-18T02:29:13.069Z,10.1
2019-05-18T02:29:49.041Z,10.1
2019-05-18T02:30:25.032Z,10
2019-05-18T02:31:01.078Z,10.1
2019-05-18T02:31:37.076Z,10.1
2019-05-18T02:32:13.049Z,10.1
2019-05-18T02:32:49.019Z,10.1
2019-05-18T02:33:25.022Z,10.1
2019-05-18T02:34:01.086Z,10.1
2019-05-18T02:34:37.045Z,10.1
2019-05-18T02:35:13.089Z,10.1
2019-05-18T02:35:49.001Z,10.1
2019-05-18T02:36:25.071Z,10.1
2019-05-18T02:37:01.049Z,10.1
2019-05-18T02:37:37.016Z,10
2019-05-18T02:38:12.987Z,10.1
2019-05-18T02:38:49.066Z,10
2019-05-18T02:39:25.040Z,10.1
2019-05-18T02:40:01.012Z,10.1
2019-05-18T02:40:36.976Z,10.1
2019-05-18T02:41:13.102Z,10.1
2019-05-18T02:41:49.044Z,10.1
2019-05-18T02:42:25.014Z,10.1
2019-05-18T02:43:00.974Z,10
2019-05-18T02:43:37.077Z,10.1
2019-05-18T02:44:13.023Z,10
2019-05-18T02:44:48.998Z,10.1
2019-05-18T02:45:24.996Z,10.1
2019-05-18T02:46:01.062Z,10.2
2019-05-18T02:46:37.046Z,10.1
2019-05-18T02:47:12.994Z,10.2
2019-05-18T02:47:48.991Z,10.1
2019-05-18T02:48:25.074Z,10
2019-05-18T02:49:01.051Z,10.1
2019-05-18T02:49:36.996Z,10.1
2019-05-18T02:50:13.090Z,10.1
2019-05-18T02:50:49.057Z,10.1
2019-05-18T02:51:25.033Z,10
2019-05-18T02:52:01.030Z,10.1
2019-05-18T02:52:37.082Z,10
2019-05-18T02:53:13.102Z,10.1
2019-05-18T02:53:49.034Z,10
2019-05-18T02:54:25.008Z,10.1
2019-05-18T02:55:01.075Z,10.1
2019-05-18T02:55:37.059Z,10
2019-05-18T02:56:13.010Z,10.1
2019-05-18T02:56:48.992Z,10
2019-05-18T02:57:25.085Z,10
2019-05-18T02:58:01.048Z,10.1
2019-05-18T02:58:37.126Z,9.9
2019-05-18T02:59:13.004Z,10
2019-05-18T02:59:49.075Z,10
2019-05-18T03:00:25.038Z,9.9
2019-05-18T03:01:01.025Z,10.1
2019-05-18T03:01:36.992Z,10
2019-05-18T03:02:13.168Z,9.9
2019-05-18T03:02:49.053Z,9.9
2019-05-18T03:03:25.032Z,9.9
2019-05-18T03:04:00.979Z,9.8
2019-05-18T03:04:37.105Z,9.9
2019-05-18T03:05:13.037Z,9.9
2019-05-18T03:05:49.013Z,9.9
2019-05-18T03:06:24.996Z,9.9
2019-05-18T03:07:01.056Z,9.9
2019-05-18T03:07:37.033Z,9.9
2019-05-18T03:08:13.015Z,9.9
2019-05-18T03:08:48.969Z,9.8
2019-05-18T03:09:25.053Z,9.9
2019-05-18T03:10:01.039Z,9.8
2019-05-18T03:10:36.998Z,9.8
2019-05-18T03:11:12.971Z,9.8
2019-05-18T03:11:49.051Z,9.9
2019-05-18T03:12:25.064Z,9.9
2019-05-18T03:13:01.003Z,9.8
2019-05-18T03:13:36.989Z,9.8
2019-05-18T03:14:13.056Z,9.8
2019-05-18T03:14:49.023Z,9.8
2019-05-18T03:15:25.006Z,9.9
2019-05-18T03:16:00.972Z,9.7
2019-05-18T03:16:48.963Z,9.8
2019-05-18T03:17:25.063Z,9.8
2019-05-18T03:18:01.012Z,9.9
2019-05-18T03:18:37.022Z,9.8
2019-05-18T03:19:12.973Z,9.8
2019-05-18T03:19:49.042Z,9.8
2019-05-18T03:20:25.028Z,9.8
2019-05-18T03:21:00.981Z,9.8
2019-05-18T03:21:36.966Z,9.7
2019-05-18T03:22:13.042Z,9.8
2019-05-18T03:22:49.032Z,9.8
2019-05-18T03:23:24.982Z,9.8
2019-05-18T03:24:00.994Z,9.8
2019-05-18T03:24:37.042Z,9.8
2019-05-18T03:25:13.022Z,9.8
2019-05-18T03:25:48.992Z,9.8
2019-05-18T03:26:25.106Z,9.8
2019-05-18T03:27:01.045Z,9.8
2019-05-18T03:27:37.077Z,9.9
2019-05-18T03:28:12.984Z,9.8
2019-05-18T03:28:49.068Z,9.8
2019-05-18T03:29:25.066Z,9.9
2019-05-18T03:30:01.005Z,9.8
2019-05-18T03:30:36.993Z,9.8
2019-05-18T03:31:13.089Z,9.8
2019-05-18T03:31:49.049Z,9.8
2019-05-18T03:32:25.025Z,9.8
2019-05-18T03:33:00.994Z,9.8
2019-05-18T03:33:37.109Z,9.8
2019-05-18T03:34:13.043Z,9.8
2019-05-18T03:34:49.032Z,9.8
2019-05-18T03:35:24.962Z,9.9
2019-05-18T03:36:01.137Z,9.9
2019-05-18T03:36:37.025Z,9.8
2019-05-18T03:37:25.027Z,9.8
2019-05-18T03:38:00.994Z,9.8
2019-05-18T03:38:36.958Z,9.9
2019-05-18T03:39:13.042Z,9.8
2019-05-18T03:39:49.036Z,9.8
2019-05-18T03:40:24.994Z,9.9
2019-05-18T03:41:00.975Z,9.9
2019-05-18T03:41:37.044Z,10
2019-05-18T03:42:13.039Z,9.9
2019-05-18T03:42:48.996Z,9.9
2019-05-18T03:43:24.956Z,10
2019-05-18T03:44:01.046Z,10
2019-05-18T03:44:37.039Z,10
2019-05-18T03:45:13.019Z,10
2019-05-18T03:45:48.968Z,10
2019-05-18T03:46:25.044Z,10
2019-05-18T03:47:01.004Z,9.9
2019-05-18T03:47:36.987Z,9.9
2019-05-18T03:48:12.955Z,10
2019-05-18T03:48:49.052Z,10
2019-05-18T03:49:28.032Z,10
2019-05-18T03:50:00.982Z,10.1
2019-05-18T03:50:36.975Z,10.1
2019-05-18T03:51:13.034Z,10.1
2019-05-18T03:51:49.006Z,10.1
2019-05-18T03:52:24.975Z,10.1
2019-05-18T03:53:00.946Z,10.1
2019-05-18T03:53:37.033Z,10.1
2019-05-18T03:54:13.015Z,10.1
2019-05-18T03:54:48.987Z,10.1
2019-05-18T03:55:24.964Z,10.2
2019-05-18T03:56:01.092Z,10.1
2019-05-18T03:56:37.008Z,10.1
2019-05-18T03:57:12.996Z,10.1
2019-05-18T03:57:48.940Z,10.1
2019-05-18T03:58:25.041Z,10.1
2019-05-18T03:59:01.017Z,10.1
2019-05-18T03:59:37.014Z,10.2
2019-05-18T04:00:12.964Z,10.2
2019-05-18T04:00:49.030Z,10.1
2019-05-18T04:01:25.011Z,10.2
2019-05-18T04:02:01.009Z,10.2
2019-05-18T04:02:37.096Z,10.2
2019-05-18T04:03:13.019Z,10.1
2019-05-18T04:03:49.060Z,10.2
2019-05-18T04:04:24.963Z,10.2
2019-05-18T04:05:01.054Z,10.1
2019-05-18T04:05:37.020Z,10.2
2019-05-18T04:06:13.029Z,10.4
2019-05-18T04:06:48.983Z,10.4
2019-05-18T04:07:25.043Z,10.3
2019-05-18T04:08:01.022Z,10.4
2019-05-18T04:08:36.994Z,10.3
2019-05-18T04:09:12.974Z,10.4
2019-05-18T04:09:49.038Z,10.4
2019-05-18T04:10:25.024Z,10.4
2019-05-18T04:11:01.011Z,10.5
2019-05-18T04:11:36.949Z,10.6
2019-05-18T04:12:13.078Z,10.6
2019-05-18T04:12:49.015Z,10.7
2019-05-18T04:13:25.007Z,10.7
2019-05-18T04:14:00.978Z,10.8
2019-05-18T04:14:37.073Z,10.9
2019-05-18T04:15:13.024Z,10.9
2019-05-18T04:15:48.973Z,11.1
2019-05-18T04:16:24.966Z,11
2019-05-18T04:17:01.049Z,11.2
2019-05-18T04:17:37.022Z,11.3
2019-05-18T04:18:12.991Z,11.4
2019-05-18T04:18:48.970Z,11.4
2019-05-18T04:19:25.045Z,11.5
2019-05-18T04:20:01.009Z,11.5
2019-05-18T04:20:37.001Z,11.6
2019-05-18T04:21:12.943Z,11.7
2019-05-18T04:21:49.035Z,11.7
2019-05-18T04:22:24.994Z,11.8
2019-05-18T04:23:01.007Z,11.8
2019-05-18T04:23:37.006Z,11.9
2019-05-18T04:24:13.035Z,11.9
2019-05-18T04:24:48.993Z,12
2019-05-18T04:25:24.982Z,12
2019-05-18T04:26:00.936Z,12.1
2019-05-18T04:26:37.093Z,12.2
2019-05-18T04:27:13.009Z,12.2
2019-05-18T04:27:48.972Z,12.4
2019-05-18T04:28:24.947Z,12.3
2019-05-18T04:29:01.028Z,12.4
2019-05-18T04:29:36.989Z,12.5
2019-05-18T04:30:12.971Z,12.5
2019-05-18T04:30:48.930Z,12.6
2019-05-18T04:31:25.028Z,12.7
2019-05-18T04:32:00.983Z,12.7
2019-05-18T04:32:36.965Z,12.9
2019-05-18T04:33:12.951Z,13
2019-05-18T04:34:00.954Z,13.1
2019-05-18T04:34:37.036Z,13.1
2019-05-18T04:35:12.993Z,13.2
2019-05-18T04:35:48.953Z,13.4
2019-05-18T04:36:24.949Z,13.5
2019-05-18T04:37:01.039Z,13.6
2019-05-18T04:37:36.986Z,13.6
2019-05-18T04:38:12.976Z,13.7
2019-05-18T04:38:48.924Z,13.7
2019-05-18T04:39:25.031Z,13.7
2019-05-18T04:40:00.981Z,13.8
2019-05-18T04:40:36.959Z,13.9
2019-05-18T04:41:12.921Z,13.8
2019-05-18T04:41:49.009Z,14
2019-05-18T04:42:24.974Z,14.1
2019-05-18T04:43:00.951Z,14.1
2019-05-18T04:43:37.070Z,14.3
2019-05-18T04:44:13.015Z,14.3
2019-05-18T04:44:48.988Z,14.5
2019-05-18T04:45:24.942Z,14.6
2019-05-18T04:46:01.033Z,14.7
2019-05-18T04:46:37.004Z,14.8
2019-05-18T04:47:12.974Z,14.8
2019-05-18T04:47:49.351Z,14.9
2019-05-18T04:48:25.025Z,15
2019-05-18T04:49:01.018Z,14.9
2019-05-18T04:49:36.970Z,15
2019-05-18T04:50:12.969Z,15.2
2019-05-18T04:50:49.034Z,15.2
2019-05-18T04:51:25.011Z,15.1
2019-05-18T04:52:00.960Z,15.1
2019-05-18T04:52:36.943Z,15
2019-05-18T04:53:13.023Z,15
2019-05-18T04:53:49.012Z,14.9
2019-05-18T04:54:24.958Z,14.8
2019-05-18T04:55:00.931Z,14.9
2019-05-18T04:55:37.077Z,14.8
2019-05-18T04:56:13.007Z,14.7
2019-05-18T04:56:48.960Z,14.7
2019-05-18T04:57:24.945Z,14.5
2019-05-18T04:58:01.011Z,14.4
2019-05-18T04:58:37.002Z,14.4
2019-05-18T04:59:12.970Z,14.4
2019-05-18T04:59:48.924Z,14.5
2019-05-18T05:00:25.014Z,14.5
2019-05-18T05:01:00.998Z,14.4
2019-05-18T05:01:36.978Z,14.4
2019-05-18T05:02:12.990Z,14.4
2019-05-18T05:02:49.011Z,14.4
2019-05-18T05:03:24.988Z,14.5
2019-05-18T05:04:01.221Z,14.3
2019-05-18T05:04:36.927Z,14.4
2019-05-18T05:05:13.007Z,14.3
2019-05-18T05:05:48.983Z,14.2
2019-05-18T05:06:24.994Z,14.2
2019-05-18T05:07:00.927Z,14.3
2019-05-18T05:07:37.009Z,14.3
2019-05-18T05:08:12.973Z,14.3
2019-05-18T05:08:48.936Z,14.3
2019-05-18T05:09:24.943Z,14.3
2019-05-18T05:10:02.891Z,14.4
2019-05-18T05:10:36.964Z,14.5
2019-05-18T05:11:12.949Z,14.6
2019-05-18T05:11:48.964Z,14.6
2019-05-18T05:12:24.992Z,14.6
2019-05-18T05:13:00.974Z,14.7
2019-05-18T05:13:36.938Z,14.8
2019-05-18T05:14:12.945Z,14.8
2019-05-18T05:14:48.992Z,14.5
2019-05-18T05:15:24.962Z,14.6
2019-05-18T05:16:00.939Z,14.5
2019-05-18T05:16:36.901Z,14.5
2019-05-18T05:17:13.029Z,14.5
2019-05-18T05:17:48.964Z,14.4
2019-05-18T05:18:24.934Z,14.5
2019-05-18T05:19:00.916Z,14.4
2019-05-18T05:19:36.987Z,14.3
2019-05-18T05:20:20.349Z,14.3
2019-05-18T05:20:48.934Z,14.3
2019-05-18T05:21:24.909Z,14.4
2019-05-18T05:22:00.986Z,14.4
2019-05-18T05:22:36.975Z,14.4
2019-05-18T05:23:12.917Z,14.4
2019-05-18T05:24:01.083Z,14.4
2019-05-18T05:24:36.884Z,14.5
2019-05-18T05:25:24.907Z,14.2
2019-05-18T05:26:00.991Z,14.2
2019-05-18T05:26:39.970Z,14.2
2019-05-18T05:27:12.918Z,14.2
2019-05-18T05:27:48.906Z,14.2
2019-05-18T05:28:24.980Z,14.2
2019-05-18T05:29:00.955Z,14.2
2019-05-18T05:29:36.921Z,14.2
2019-05-18T05:30:13.064Z,14.3
2019-05-18T05:30:48.970Z,14.2
2019-05-18T05:31:24.963Z,14.2
2019-05-18T05:32:00.917Z,14.3
2019-05-18T05:32:36.879Z,14.4
2019-05-18T05:33:12.994Z,14.4
2019-05-18T05:34:01.007Z,14.6
2019-05-18T05:34:36.950Z,14.6
2019-05-18T05:35:12.909Z,14.7
2019-05-18T05:35:49.023Z,14.8
2019-05-18T05:36:24.962Z,14.9
2019-05-18T05:37:00.958Z,14.8
2019-05-18T05:37:36.916Z,15
2019-05-18T05:38:13.025Z,15.1
2019-05-18T05:38:48.975Z,15.1
2019-05-18T05:39:24.934Z,15.2
2019-05-18T05:40:00.906Z,15.1
2019-05-18T05:40:36.989Z,15.2
2019-05-18T05:41:16.927Z,15.1
2019-05-18T05:41:48.938Z,15.3
2019-05-18T05:42:36.939Z,15.2
2019-05-18T05:43:12.927Z,15.2
2019-05-18T05:43:49.012Z,15.2
2019-05-18T05:44:24.958Z,15.4
2019-05-18T05:45:00.967Z,15.4
2019-05-18T05:45:36.895Z,15.5
2019-05-18T05:46:12.997Z,15.7
2019-05-18T05:46:48.955Z,15.7
2019-05-18T05:47:24.926Z,15.8
2019-05-18T05:48:00.901Z,15.9
2019-05-18T05:48:36.980Z,15.9
2019-05-18T05:49:12.970Z,16
2019-05-18T05:49:48.931Z,16
2019-05-18T05:50:36.666Z,16.1
2019-05-18T05:51:00.976Z,16.2
2019-05-18T05:51:36.953Z,16.3
2019-05-18T05:52:12.917Z,16.4
2019-05-18T05:52:48.900Z,16.6
2019-05-18T05:53:24.975Z,16.6
2019-05-18T05:54:00.965Z,16.8
2019-05-18T05:54:36.930Z,16.9
2019-05-18T05:55:12.892Z,17.1
2019-05-18T05:55:48.971Z,17.2
2019-05-18T05:56:24.940Z,17.3
2019-05-18T05:57:00.906Z,17.3
2019-05-18T05:57:36.901Z,17.4
2019-05-18T05:58:12.977Z,17.5
2019-05-18T05:58:48.939Z,17.6
2019-05-18T05:59:24.915Z,17.6
2019-05-18T06:00:00.908Z,17.6
2019-05-18T06:00:48.900Z,17.5
2019-05-18T06:01:24.966Z,17.4
2019-05-18T06:02:00.952Z,17.3
2019-05-18T06:02:36.901Z,17.1
2019-05-18T06:03:12.875Z,17.1
2019-05-18T06:03:48.963Z,17.2
2019-05-18T06:04:24.967Z,17.2
2019-05-18T06:05:00.924Z,17.3
2019-05-18T06:05:48.902Z,17.3
2019-05-18T06:06:24.867Z,17.5
2019-05-18T06:07:00.963Z,17.5
2019-05-18T06:07:36.931Z,17.5
2019-05-18T06:08:12.940Z,17.6
2019-05-18T06:08:48.876Z,17.6
2019-05-18T06:09:24.960Z,17.6
2019-05-18T06:10:00.942Z,17.7
2019-05-18T06:10:36.914Z,17.6
2019-05-18T06:11:12.871Z,17.6
2019-05-18T06:11:48.957Z,17.6
2019-05-18T06:12:24.938Z,17.7
2019-05-18T06:13:00.884Z,17.7
2019-05-18T06:13:36.858Z,17.9
2019-05-18T06:14:12.958Z,17.9
2019-05-18T06:14:48.945Z,18.1
2019-05-18T06:15:24.887Z,18.1
2019-05-18T06:16:00.873Z,18
2019-05-18T06:16:36.953Z,17.9
2019-05-18T06:17:12.928Z,18
2019-05-18T06:17:48.884Z,17.9
2019-05-18T06:18:24.863Z,17.9
2019-05-18T06:19:00.941Z,17.9
2019-05-18T06:19:36.975Z,17.9
2019-05-18T06:20:12.933Z,17.8
2019-05-18T06:20:52.152Z,17.9
2019-05-18T06:21:24.961Z,17.8
2019-05-18T06:22:00.911Z,18
2019-05-18T06:22:36.995Z,17.9
2019-05-18T06:23:12.860Z,18.1
2019-05-18T06:23:48.938Z,18.1
2019-05-18T06:24:24.931Z,18.2
2019-05-18T06:25:00.880Z,18.2
2019-05-18T06:25:36.853Z,18.2
2019-05-18T06:26:12.942Z,18.3
2019-05-18T06:26:48.986Z,18.4
2019-05-18T06:27:24.883Z,18.4
2019-05-18T06:28:00.849Z,18.4
2019-05-18T06:28:36.937Z,18.3
2019-05-18T06:29:12.909Z,18.3
2019-05-18T06:29:48.879Z,18.3
2019-05-18T06:30:24.856Z,18.4
2019-05-18T06:31:00.935Z,18.4
2019-05-18T06:31:36.902Z,18.4
2019-05-18T06:32:12.878Z,18.4
2019-05-18T06:32:48.961Z,18.5
2019-05-18T06:33:24.947Z,18.7
2019-05-18T06:34:00.904Z,18.5
2019-05-18T06:34:36.881Z,18.6
2019-05-18T06:35:12.952Z,18.6
2019-05-18T06:35:48.926Z,18.7
2019-05-18T06:36:24.888Z,18.8
2019-05-18T06:37:00.860Z,18.9
2019-05-18T06:37:36.968Z,18.9
2019-05-18T06:38:12.913Z,19
2019-05-18T06:38:48.893Z,19
2019-05-18T06:39:24.860Z,19.1
2019-05-18T06:40:24.882Z,19.3
2019-05-18T06:41:00.852Z,19.3
2019-05-18T06:41:36.948Z,19.3
2019-05-18T06:42:12.957Z,19.4
2019-05-18T06:43:00.936Z,19.2
2019-05-18T06:43:36.875Z,19.4
2019-05-18T06:44:12.864Z,19.3
2019-05-18T06:45:00.859Z,19.3
2019-05-18T06:45:36.944Z,19.3
2019-05-18T06:46:12.919Z,19.4
2019-05-18T06:46:48.883Z,19.5
2019-05-18T06:47:24.859Z,19.6
2019-05-18T06:48:00.944Z,19.6
2019-05-18T06:48:36.921Z,19.7
2019-05-18T06:49:12.916Z,19.8
2019-05-18T06:49:48.861Z,20
2019-05-18T06:50:24.957Z,20
2019-05-18T06:51:07.925Z,20.1
2019-05-18T06:51:36.871Z,20.3
2019-05-18T06:52:12.848Z,20.4
2019-05-18T06:52:48.949Z,20.4
2019-05-18T06:53:24.923Z,20.5
2019-05-18T06:54:00.885Z,20.6
2019-05-18T06:55:12.935Z,20.9
2019-05-18T06:55:48.907Z,20.9
2019-05-18T06:56:24.875Z,20.9
2019-05-18T06:57:00.846Z,20.9
2019-05-18T06:57:36.930Z,21
2019-05-18T06:58:12.925Z,21
2019-05-18T06:59:00.913Z,20.8
2019-05-18T06:59:48.887Z,20.8
2019-05-18T07:00:24.860Z,20.6
2019-05-18T07:01:48.833Z,20.6
2019-05-18T07:02:24.917Z,20.5
2019-05-18T07:03:36.879Z,20.3
2019-05-18T07:04:24.879Z,20.4
2019-05-18T07:05:00.859Z,20.4
2019-05-18T07:05:36.938Z,20.5
2019-05-18T07:06:12.886Z,20.5
2019-05-18T07:06:48.873Z,20.4
2019-05-18T07:07:24.823Z,20.5
2019-05-18T07:08:00.918Z,20.5
2019-05-18T07:08:48.913Z,20.6
2019-05-18T07:09:24.937Z,20.6
2019-05-18T07:10:12.892Z,20.5
2019-05-18T07:11:00.875Z,20.4
2019-05-18T07:11:48.879Z,20.5
2019-05-18T07:12:24.856Z,20.4
2019-05-18T07:13:00.830Z,20.5
2019-05-18T07:13:36.931Z,20.4
2019-05-18T07:14:26.323Z,20.4
2019-05-18T07:15:01.000Z,20.3
2019-05-18T07:15:36.845Z,20.4
2019-05-18T07:16:12.821Z,20.4
2019-05-18T07:16:48.914Z,20.4
2019-05-18T07:17:24.872Z,20.4
2019-05-18T07:18:00.842Z,20.4
2019-05-18T07:18:36.818Z,20.4
2019-05-18T07:19:12.898Z,20.3
2019-05-18T07:19:48.890Z,20.3
2019-05-18T07:20:25.118Z,20.3
2019-05-18T07:21:00.807Z,20.2
2019-05-18T07:21:48.813Z,20.2
2019-05-18T07:22:36.852Z,20.2
2019-05-18T07:23:12.917Z,20.3
2019-05-18T07:24:00.908Z,20.3
2019-05-18T07:24:36.882Z,20.5
2019-05-18T07:25:36.909Z,20.7
2019-05-18T07:26:24.893Z,20.7
2019-05-18T07:27:24.809Z,20.9
2019-05-18T07:28:00.905Z,20.9
2019-05-18T07:28:48.906Z,21
2019-05-18T07:29:36.891Z,21
2019-05-18T07:30:12.867Z,20.9
2019-05-18T07:30:48.854Z,20.8
2019-05-18T07:31:24.803Z,21
2019-05-18T07:32:00.908Z,21
2019-05-18T07:32:36.874Z,21
2019-05-18T07:33:12.862Z,21.1
2019-05-18T07:34:12.897Z,21
2019-05-18T07:34:48.845Z,21
2019-05-18T07:35:24.841Z,21
2019-05-18T07:36:12.816Z,21.1
2019-05-18T07:36:48.880Z,21.1
2019-05-18T07:37:24.965Z,21.1
2019-05-18T07:38:00.817Z,21.1
2019-05-18T07:38:36.931Z,21.1
2019-05-18T07:39:36.817Z,21
2019-05-18T07:40:24.819Z,20.9
2019-05-18T07:41:00.907Z,20.9
2019-05-18T07:41:47.260Z,20.9
2019-05-18T07:42:12.844Z,21
2019-05-18T07:42:48.822Z,21.1
2019-05-18T07:43:24.926Z,21.1
2019-05-18T07:44:00.883Z,21.1
2019-05-18T07:44:48.866Z,21.3
2019-05-18T07:45:24.839Z,21.2
2019-05-18T07:46:36.910Z,21.5
2019-05-18T07:48:00.878Z,21.6
2019-05-18T07:48:36.833Z,21.7
2019-05-18T07:49:12.814Z,21.6
2019-05-18T07:50:12.837Z,21.5
2019-05-18T07:50:48.823Z,21.7
2019-05-18T07:52:36.853Z,21.8
2019-05-18T07:54:00.806Z,22.1
2019-05-18T07:54:36.902Z,21.9
2019-05-18T07:56:36.870Z,21.9
2019-05-18T07:57:12.857Z,22
2019-05-18T07:59:12.894Z,22.3
2019-05-18T08:00:24.828Z,22.5
2019-05-18T08:01:00.951Z,22.5
2019-05-18T08:01:36.919Z,22.6
2019-05-18T08:02:12.856Z,22.7
2019-05-18T08:03:48.837Z,22.9
2019-05-18T08:04:24.851Z,22.8
2019-05-18T08:05:12.888Z,22.7
2019-05-18T08:05:48.931Z,22.7
2019-05-18T08:06:24.856Z,22.7
2019-05-18T08:07:00.822Z,22.8
2019-05-18T08:08:00.866Z,22.9
2019-05-18T08:10:24.885Z,23.3
2019-05-18T08:11:00.834Z,23.3
2019-05-18T08:11:36.804Z,23.5
2019-05-18T08:12:24.819Z,23.6
2019-05-18T08:13:12.834Z,23.8
2019-05-18T08:13:48.892Z,23.8
2019-05-18T08:14:24.844Z,23.8
2019-05-18T08:15:00.816Z,23.9
2019-05-18T08:15:52.019Z,23.9
2019-05-18T08:16:36.826Z,23.6
2019-05-18T08:17:12.779Z,23.8
2019-05-18T08:18:00.794Z,23.8
2019-05-18T08:19:12.847Z,23.7
2019-05-18T08:20:24.770Z,23.7
2019-05-18T08:21:12.778Z,23.8
2019-05-18T08:21:53.898Z,23.7
2019-05-18T08:22:24.825Z,23.8
2019-05-18T08:23:12.832Z,23.7
2019-05-18T08:23:48.796Z,23.6
2019-05-18T08:24:24.770Z,23.6
2019-05-18T08:25:48.848Z,23.6
2019-05-18T08:26:24.839Z,23.6
2019-05-18T08:28:24.762Z,23.6